Time;durP1;ratioP1;P1;durP2;ratioP2;P2;SDS_P1;SDS_P2;PMS_P1;PMS_P2;Temp;Humidity;BMP_temperature;BMP_pressure;BME280_temperature;BME280_humidity;BME280_pressure;Samples;Min_cycle;Max_cycle;Signal;HPM_P1;HPM_P2
2023/10/05 00:01:24;;;;;;;7.13;3.43;;;;;;;14.66;78.41;101258.59;5072826;28;20239;-84
2023/10/05 00:03:51;;;;;;;11.57;4.07;;;;;;;14.65;78.23;101254.25;5058213;28;20212;-82
2023/10/05 00:06:23;;;;;;;4.57;3.10;;;;;;;14.71;77.96;101262.00;5056985;28;20215;-83
2023/10/05 00:08:52;;;;;;;6.77;3.73;;;;;;;14.44;79.25;101259.03;5058728;28;20219;-84
2023/10/05 00:11:23;;;;;;;5.80;3.63;;;;;;;14.50;79.00;101239.66;5057918;28;20644;-83
2023/10/05 00:13:52;;;;;;;7.50;3.03;;;;;;;14.54;78.99;101227.31;5057528;28;20683;-81
2023/10/05 00:16:21;;;;;;;6.47;3.40;;;;;;;14.57;78.90;101222.91;5058664;28;20200;-83
2023/10/05 00:18:49;;;;;;;6.80;3.40;;;;;;;14.59;78.87;101236.84;5058080;28;20240;-84
2023/10/05 00:21:18;;;;;;;4.13;3.50;;;;;;;14.48;79.04;101223.06;5049651;28;20572;-83
2023/10/05 00:23:50;;;;;;;7.50;3.17;;;;;;;14.57;78.91;101219.38;5057415;28;20208;-84
2023/10/05 00:26:20;;;;;;;7.43;3.50;;;;;;;14.63;78.86;101219.25;5048875;28;20204;-83
2023/10/05 00:28:55;;;;;;;7.23;4.00;;;;;;;14.63;78.98;101211.38;5052572;28;20218;-84
2023/10/05 00:31:24;;;;;;;8.47;3.67;;;;;;;14.58;79.10;101211.47;5058447;28;20230;-84
2023/10/05 00:33:51;;;;;;;5.17;3.57;;;;;;;14.62;78.93;101215.75;5057205;28;20295;-82
2023/10/05 00:36:18;;;;;;;7.00;3.90;;;;;;;14.58;79.19;101200.97;5049155;28;20217;-83
2023/10/05 00:38:45;;;;;;;7.87;3.77;;;;;;;14.57;79.02;101199.25;5056955;28;20212;-83
2023/10/05 00:41:13;;;;;;;7.30;4.10;;;;;;;14.61;78.93;101197.41;5056884;28;20250;-83
2023/10/05 00:43:40;;;;;;;6.60;3.33;;;;;;;14.61;78.77;101202.66;5057409;28;20257;-83
2023/10/05 00:46:07;;;;;;;6.53;2.93;;;;;;;14.64;78.60;101213.94;5056897;28;20211;-83
2023/10/05 00:48:35;;;;;;;6.90;3.40;;;;;;;14.58;78.91;101208.84;5056353;28;20238;-83
2023/10/05 00:51:08;;;;;;;8.20;4.10;;;;;;;14.60;78.48;101212.28;5056596;28;20636;-85
2023/10/05 00:53:35;;;;;;;7.47;3.50;;;;;;;14.58;79.22;101208.84;5061831;28;20213;-83
2023/10/05 00:56:11;;;;;;;6.70;3.67;;;;;;;14.61;78.70;101210.56;5065537;28;20613;-84
2023/10/05 00:58:42;;;;;;;5.47;3.20;;;;;;;14.58;79.11;101206.22;5063807;28;20205;-84
2023/10/05 01:01:15;;;;;;;5.73;3.57;;;;;;;14.61;78.61;101202.66;5064282;28;20232;-81
2023/10/05 01:04:11;;;;;;;6.93;3.50;;;;;;;14.53;79.20;101210.69;5064948;28;20693;-85
2023/10/05 01:06:40;;;;;;;8.17;3.37;;;;;;;14.55;79.24;101203.63;5063948;28;20241;-84
2023/10/05 01:09:12;;;;;;;5.07;3.20;;;;;;;14.58;78.95;101200.97;5064311;28;20247;-85
2023/10/05 01:11:42;;;;;;;6.03;3.40;;;;;;;14.60;79.05;101203.56;5064691;28;20217;-84
2023/10/05 01:14:09;;;;;;;6.33;3.40;;;;;;;14.50;79.29;101197.63;5062924;28;20205;-84
2023/10/05 01:16:36;;;;;;;7.73;3.80;;;;;;;14.39;80.39;101179.50;5063201;28;20202;-84
2023/10/05 01:19:07;;;;;;;8.27;4.17;;;;;;;14.45;80.46;101174.09;5063975;28;20205;-85
2023/10/05 01:21:35;;;;;;;6.50;3.10;;;;;;;14.47;80.58;101168.81;5065310;28;20289;-84
2023/10/05 01:24:04;;;;;;;4.23;3.37;;;;;;;14.46;80.51;101162.66;5064409;28;20238;-85
2023/10/05 01:26:31;;;;;;;7.47;3.83;;;;;;;14.46;80.47;101161.81;5062943;28;20292;-85
2023/10/05 01:28:58;;;;;;;5.47;3.30;;;;;;;14.40;80.97;101148.81;5063285;28;20208;-83
2023/10/05 01:31:25;;;;;;;7.43;3.40;;;;;;;14.35;81.16;101156.81;5064983;28;20704;-83
2023/10/05 01:33:51;;;;;;;7.83;3.47;;;;;;;14.43;80.94;101153.97;5064108;28;20216;-80
2023/10/05 01:36:19;;;;;;;7.63;3.33;;;;;;;14.35;80.92;101145.44;5064071;28;20192;-82
2023/10/05 01:38:47;;;;;;;5.60;3.10;;;;;;;14.48;80.84;101139.84;5065849;28;20208;-81
2023/10/05 01:41:20;;;;;;;6.97;3.23;;;;;;;14.46;81.09;101132.91;5064024;28;20244;-83
2023/10/05 01:43:47;;;;;;;8.23;4.37;;;;;;;14.54;80.58;101140.63;5063771;28;20208;-82
2023/10/05 01:46:15;;;;;;;7.37;3.50;;;;;;;14.60;80.36;101135.25;5064095;28;20253;-82
2023/10/05 01:48:42;;;;;;;6.83;3.97;;;;;;;14.64;80.48;101129.88;5064587;28;20258;-83
2023/10/05 01:51:10;;;;;;;5.67;3.00;;;;;;;14.67;80.33;101136.84;5063343;28;20224;-81
2023/10/05 01:53:36;;;;;;;6.70;4.17;;;;;;;14.59;80.14;101138.75;5063324;28;20680;-84
2023/10/05 01:56:03;;;;;;;5.20;3.30;;;;;;;14.62;80.27;101134.28;5064346;28;20222;-85
2023/10/05 01:58:34;;;;;;;9.27;4.00;;;;;;;14.69;80.04;101125.38;5062698;28;20198;-84
2023/10/05 02:01:01;;;;;;;9.97;4.30;;;;;;;14.69;80.31;101138.50;5062453;28;20232;-84
2023/10/05 02:03:27;;;;;;;6.50;4.07;;;;;;;14.68;80.84;101134.13;5064526;28;20323;-85
2023/10/05 02:05:58;;;;;;;9.37;4.00;;;;;;;14.65;80.65;101131.59;5064343;28;20204;-85
2023/10/05 02:08:24;;;;;;;8.10;4.43;;;;;;;14.68;80.39;101131.50;5056078;28;20201;-84
2023/10/05 02:10:50;;;;;;;10.50;3.77;;;;;;;14.65;80.90;101126.34;5064723;28;20242;-85
2023/10/05 02:13:18;;;;;;;6.93;4.00;;;;;;;14.70;80.55;101120.97;5062855;28;20221;-85
2023/10/05 02:15:49;;;;;;;5.30;3.53;;;;;;;14.74;80.70;101127.88;5063883;28;20597;-85
2023/10/05 02:18:23;;;;;;;9.00;4.00;;;;;;;14.76;80.82;101123.44;5063945;28;20211;-86
2023/10/05 02:20:56;;;;;;;7.50;4.00;;;;;;;14.75;81.03;101115.63;5067127;28;20246;-85
2023/10/05 02:23:25;;;;;;;8.63;4.43;;;;;;;14.76;80.82;101115.56;5068132;28;20208;-85
2023/10/05 02:26:02;;;;;;;6.13;4.17;;;;;;;14.72;81.26;101102.53;5068469;28;20212;-85
2023/10/05 02:28:33;;;;;;;7.27;3.90;;;;;;;14.76;81.33;101093.69;5071380;28;20245;-86
2023/10/05 02:31:05;;;;;;;8.10;4.40;;;;;;;14.74;81.69;101084.97;5079556;28;20240;-85
2023/10/05 02:33:32;;;;;;;7.90;4.43;;;;;;;14.71;81.85;101075.41;5071916;28;20230;-84
2023/10/05 02:36:09;;;;;;;9.37;4.67;;;;;;;14.58;81.89;101064.34;5078611;28;20253;-84
2023/10/05 02:38:37;;;;;;;7.03;3.93;;;;;;;14.64;82.24;101053.66;5080178;28;20228;-85
2023/10/05 02:41:05;;;;;;;8.03;4.17;;;;;;;14.71;82.00;101062.28;5076198;28;20750;-84
2023/10/05 02:43:38;;;;;;;6.60;3.80;;;;;;;14.53;82.79;101060.06;5063062;28;20687;-83
2023/10/05 02:46:10;;;;;;;7.10;4.00;;;;;;;14.55;82.37;101053.88;5061959;28;20216;-83
2023/10/05 02:48:38;;;;;;;8.67;4.47;;;;;;;14.67;82.40;101050.97;5066014;28;20228;-84
2023/10/05 02:51:05;;;;;;;8.07;4.27;;;;;;;14.72;82.06;101042.94;5064853;28;20585;-84
2023/10/05 02:53:40;;;;;;;5.73;3.87;;;;;;;14.80;81.73;101048.88;5061642;28;20205;-84
2023/10/05 02:56:20;;;;;;;5.40;3.27;;;;;;;14.84;81.64;101066.28;5061403;28;20209;-85
2023/10/05 02:58:48;;;;;;;4.67;3.37;;;;;;;14.73;81.91;101057.84;5062292;28;20213;-84
2023/10/05 03:01:16;;;;;;;10.40;3.87;;;;;;;14.70;81.86;101052.66;5061781;28;20248;-84
2023/10/05 03:03:43;;;;;;;5.90;3.73;;;;;;;14.76;81.74;101054.25;5061367;28;20281;-85
2023/10/05 03:06:10;;;;;;;6.00;3.17;;;;;;;14.80;81.62;101048.88;5061502;28;20230;-84
2023/10/05 03:08:36;;;;;;;7.00;3.80;;;;;;;14.84;81.81;101060.16;5060972;28;20679;-85
2023/10/05 03:11:03;;;;;;;8.83;3.87;;;;;;;14.79;81.85;101056.81;5062345;28;20259;-83
2023/10/05 03:13:30;;;;;;;6.10;3.50;;;;;;;14.76;81.87;101055.09;5055227;28;20242;-83
2023/10/05 03:15:59;;;;;;;5.13;3.67;;;;;;;14.80;81.53;101056.75;5061950;28;20209;-83
2023/10/05 03:18:27;;;;;;;5.57;2.93;;;;;;;14.86;81.23;101058.34;5062113;28;20295;-82
2023/10/05 03:20:53;;;;;;;10.13;3.80;;;;;;;14.88;80.91;101070.56;5062543;28;20718;-83
2023/10/05 03:23:20;;;;;;;4.43;3.10;;;;;;;14.91;80.90;101074.03;5064692;28;20216;-83
2023/10/05 03:25:47;;;;;;;7.53;3.10;;;;;;;14.80;81.30;101069.03;5065546;28;20210;-84
2023/10/05 03:28:14;;;;;;;7.83;3.10;;;;;;;14.80;81.38;101063.78;5065994;28;20286;-84
2023/10/05 03:30:40;;;;;;;10.77;4.00;;;;;;;14.84;81.18;101068.06;5066386;28;20225;-83
2023/10/05 03:33:06;;;;;;;7.10;3.07;;;;;;;14.84;81.69;101068.06;5061346;28;20219;-85
2023/10/05 03:35:34;;;;;;;6.40;3.40;;;;;;;14.86;81.41;101067.09;5065498;28;20209;-83
2023/10/05 03:38:02;;;;;;;5.23;3.23;;;;;;;14.87;81.43;101065.34;5065311;28;20212;-85
2023/10/05 03:40:35;;;;;;;6.07;3.77;;;;;;;14.73;81.52;101067.47;5062635;28;20228;-84
2023/10/05 03:43:05;;;;;;;5.13;3.27;;;;;;;14.73;81.76;101065.72;5061496;28;20258;-84
2023/10/05 03:45:32;;;;;;;5.80;3.17;;;;;;;14.77;81.56;101062.09;5061481;28;20310;-84
2023/10/05 03:47:58;;;;;;;4.77;2.90;;;;;;;14.91;81.28;101068.78;5060448;28;20212;-83
2023/10/05 03:50:25;;;;;;;6.73;2.90;;;;;;;14.92;80.88;101068.69;5060109;28;20235;-83
2023/10/05 03:52:53;;;;;;;6.20;2.97;;;;;;;14.63;81.49;101074.75;5062257;28;20275;-83
2023/10/05 03:55:19;;;;;;;8.53;2.93;;;;;;;14.74;81.51;101064.81;5062495;28;20205;-84
2023/10/05 03:57:46;;;;;;;6.17;2.57;;;;;;;14.77;81.27;101061.25;5062081;28;20299;-81
2023/10/05 04:00:31;;;;;;;3.90;2.83;;;;;;;14.56;81.46;101074.03;5063221;28;20244;-82
2023/10/05 04:02:57;;;;;;;5.67;2.90;;;;;;;14.69;81.45;101078.06;5062765;28;20630;-82
2023/10/05 04:05:24;;;;;;;6.30;2.90;;;;;;;14.42;82.06;101063.81;5062704;28;20269;-81
2023/10/05 04:07:54;;;;;;;9.90;3.30;;;;;;;14.64;82.09;101042.28;5061580;28;20203;-84
2023/10/05 04:10:23;;;;;;;5.30;3.37;;;;;;;14.64;82.13;101053.66;5063597;28;20236;-84
2023/10/05 04:12:51;;;;;;;4.57;3.20;;;;;;;14.60;82.09;101049.38;5062186;28;20204;-83
2023/10/05 04:15:20;;;;;;;7.17;3.47;;;;;;;14.65;82.05;101050.16;5062577;28;20224;-84
2023/10/05 04:17:49;;;;;;;5.27;3.27;;;;;;;14.69;81.95;101048.31;5062841;28;20732;-83
2023/10/05 04:20:19;;;;;;;5.93;3.43;;;;;;;14.66;81.84;101037.88;5064888;28;20233;-85
2023/10/05 04:22:47;;;;;;;5.43;3.50;;;;;;;14.64;81.78;101051.03;5067455;28;20197;-83
2023/10/05 04:25:16;;;;;;;5.97;3.60;;;;;;;14.75;82.10;101044.66;5069279;28;20204;-85
2023/10/05 04:27:44;;;;;;;6.17;3.93;;;;;;;14.60;81.71;101061.66;5064981;28;20211;-84
2023/10/05 04:30:17;;;;;;;5.33;3.70;;;;;;;14.76;81.73;101046.38;5065081;28;20228;-85
2023/10/05 04:32:43;;;;;;;5.87;4.20;;;;;;;14.68;82.10;101041.31;5066326;28;20208;-85
2023/10/05 04:35:20;;;;;;;6.73;4.00;;;;;;;14.68;81.86;101044.78;5064276;28;20216;-85
2023/10/05 04:37:47;;;;;;;7.40;4.47;;;;;;;14.62;82.23;101034.44;5064477;28;20229;-84
2023/10/05 04:40:17;;;;;;;8.17;4.40;;;;;;;14.50;82.63;101032.13;5064922;28;20227;-85
2023/10/05 04:42:43;;;;;;;5.80;4.20;;;;;;;14.61;82.74;101016.13;5065988;28;20676;-83
2023/10/05 04:45:12;;;;;;;6.17;4.90;;;;;;;14.54;82.68;101015.38;5064521;28;20220;-85
2023/10/05 04:47:38;;;;;;;5.63;5.03;;;;;;;14.39;83.87;100994.75;5065330;28;20221;-84
2023/10/05 04:50:15;;;;;;;7.83;4.83;;;;;;;14.27;84.08;100988.03;5067881;28;20262;-84
2023/10/05 04:52:45;;;;;;;7.00;5.30;;;;;;;14.42;84.33;100978.91;5065539;28;20204;-82
2023/10/05 04:55:22;;;;;;;8.67;5.20;;;;;;;14.46;84.00;100986.66;5066873;28;20208;-85
2023/10/05 04:57:55;;;;;;;10.40;5.53;;;;;;;14.51;83.76;100978.69;5064740;28;20215;-84
2023/10/05 05:03:17;;;;;;;10.20;5.63;;;;;;;14.41;84.60;100961.41;5061185;28;20373;-84
2023/10/05 05:06:08;;;;;;;8.57;5.93;;;;;;;14.37;84.51;100965.91;5063540;28;20234;-83
2023/10/05 05:08:38;;;;;;;9.77;6.67;;;;;;;14.29;85.37;100950.34;5062537;28;20259;-84
2023/10/05 05:11:08;;;;;;;9.07;5.90;;;;;;;14.39;84.73;100955.34;5063084;28;20240;-84
2023/10/05 05:13:38;;;;;;;9.57;6.93;;;;;;;14.18;85.57;100952.38;5063225;28;20200;-83
2023/10/05 05:16:05;;;;;;;7.37;6.27;;;;;;;14.21;85.52;100948.81;5059781;28;20203;-84
2023/10/05 05:18:32;;;;;;;6.50;5.90;;;;;;;14.35;85.61;100940.56;5066068;28;20211;-84
2023/10/05 05:20:58;;;;;;;7.10;6.17;;;;;;;14.18;86.55;100935.78;5062109;28;20238;-84
2023/10/05 05:23:25;;;;;;;7.53;6.57;;;;;;;14.28;86.42;100929.38;5062329;28;20213;-84
2023/10/05 05:25:52;;;;;;;10.40;7.67;;;;;;;14.18;86.74;100927.91;5060893;28;20276;-84
2023/10/05 05:28:18;;;;;;;8.83;7.40;;;;;;;14.15;86.74;100928.81;5064397;28;20215;-84
2023/10/05 05:30:47;;;;;;;11.33;7.80;;;;;;;14.11;87.17;100919.31;5067502;28;20228;-85
2023/10/05 05:33:13;;;;;;;11.20;8.57;;;;;;;14.22;86.60;100916.41;5063689;28;20632;-85
2023/10/05 05:35:42;;;;;;;9.17;8.27;;;;;;;14.21;86.40;100914.69;5055151;28;20318;-82
2023/10/05 05:38:09;;;;;;;9.50;8.53;;;;;;;14.16;86.31;100924.47;5064138;28;20241;-83
2023/10/05 05:40:36;;;;;;;9.77;8.93;;;;;;;14.23;86.19;100929.50;5061828;28;20224;-85
2023/10/05 05:43:07;;;;;;;10.00;8.70;;;;;;;13.99;86.86;100930.13;5062180;28;20645;-84
2023/10/05 05:45:34;;;;;;;8.00;7.40;;;;;;;14.27;86.20;100925.00;5060090;28;20958;-84
2023/10/05 05:48:08;;;;;;;10.73;8.03;;;;;;;14.43;85.67;100942.13;5059688;28;20297;-83
2023/10/05 05:50:39;;;;;;;7.80;7.20;;;;;;;14.47;85.13;100950.78;5059320;28;20315;-84
2023/10/05 05:53:06;;;;;;;7.97;7.23;;;;;;;14.39;85.43;100955.34;5061711;28;20215;-84
2023/10/05 05:55:32;;;;;;;6.70;6.20;;;;;;;14.50;85.11;100958.56;5060431;28;20219;-86
2023/10/05 05:57:59;;;;;;;9.67;7.00;;;;;;;14.40;84.91;100959.72;5058821;28;20236;-86
2023/10/05 06:00:28;;;;;;;13.10;8.07;;;;;;;14.35;85.18;100969.47;5060815;28;20295;-86
2023/10/05 06:02:55;;;;;;;6.77;6.17;;;;;;;14.30;85.30;100973.06;5067274;28;20227;-86
2023/10/05 06:05:23;;;;;;;7.27;6.53;;;;;;;14.30;86.03;100957.31;5064394;28;20208;-85
2023/10/05 06:07:50;;;;;;;7.27;6.13;;;;;;;14.29;85.73;100954.72;5058099;28;20208;-85
2023/10/05 06:10:17;;;;;;;6.27;5.70;;;;;;;14.29;85.81;100962.59;5058443;28;20239;-83
2023/10/05 06:12:47;;;;;;;6.93;5.37;;;;;;;14.03;86.17;100963.25;5057863;28;20586;-85
2023/10/05 06:15:14;;;;;;;6.80;5.53;;;;;;;14.18;86.06;100955.00;5058192;28;20231;-86
2023/10/05 06:17:41;;;;;;;6.20;5.60;;;;;;;14.18;85.61;100964.66;5057795;28;20234;-85
2023/10/05 06:20:14;;;;;;;7.77;4.80;;;;;;;14.23;85.33;100966.28;5058185;28;20224;-85
2023/10/05 06:22:44;;;;;;;5.17;4.67;;;;;;;14.37;85.14;100970.28;5068609;28;20246;-84
2023/10/05 06:25:11;;;;;;;7.43;4.80;;;;;;;14.43;85.04;100965.75;5062237;28;20674;-85
2023/10/05 06:27:37;;;;;;;6.30;3.90;;;;;;;14.56;84.43;100994.31;5057925;28;20211;-85
2023/10/05 06:30:07;;;;;;;5.80;3.83;;;;;;;14.61;84.30;100995.09;5058121;28;20236;-86
2023/10/05 06:32:33;;;;;;;4.73;4.00;;;;;;;14.36;85.05;101002.72;5057650;28;20215;-85
2023/10/05 06:35:00;;;;;;;5.47;4.80;;;;;;;14.33;85.55;100994.91;5056545;28;20686;-84
2023/10/05 06:37:26;;;;;;;5.13;4.17;;;;;;;14.19;86.15;100980.38;5057017;28;20215;-85
2023/10/05 06:39:55;;;;;;;6.13;4.57;;;;;;;14.33;85.86;100982.66;5057060;28;20738;-84
2023/10/05 06:42:21;;;;;;;5.10;4.10;;;;;;;14.22;85.82;100985.53;5056799;28;20318;-85
2023/10/05 06:44:48;;;;;;;5.57;4.37;;;;;;;14.16;86.59;100974.34;5056040;28;20212;-85
2023/10/05 06:47:35;;;;;;;4.50;4.03;;;;;;;14.38;86.25;100969.41;5056832;28;20213;-85
2023/10/05 06:50:03;;;;;;;4.57;3.60;;;;;;;14.35;86.28;100957.22;5055529;28;20342;-84
2023/10/05 06:52:29;;;;;;;4.13;3.77;;;;;;;14.24;87.04;100954.84;5054966;28;20737;-86
2023/10/05 06:54:57;;;;;;;3.90;3.50;;;;;;;14.25;87.64;100942.56;5055277;28;20662;-86
2023/10/05 06:57:24;;;;;;;4.10;3.80;;;;;;;14.40;87.32;100949.19;5054025;28;20200;-86
2023/10/05 06:59:50;;;;;;;4.07;3.70;;;;;;;14.49;86.83;100952.44;5057446;28;20657;-87
2023/10/05 07:02:17;;;;;;;5.30;4.80;;;;;;;14.43;87.74;100950.00;5061690;28;20223;-87
2023/10/05 07:04:44;;;;;;;5.80;5.23;;;;;;;14.39;88.06;100929.06;5059873;28;20207;-85
2023/10/05 07:07:10;;;;;;;6.50;5.87;;;;;;;14.39;88.66;100914.22;5061342;28;20212;-86
2023/10/05 07:09:36;;;;;;;7.83;7.23;;;;;;;14.34;89.02;100904.72;5061156;28;20220;-86
2023/10/05 07:12:05;;;;;;;9.13;8.33;;;;;;;14.40;89.34;100908.03;5059351;28;20230;-85
2023/10/05 07:14:37;;;;;;;8.97;8.20;;;;;;;14.54;88.16;100926.03;5061537;28;20210;-86
2023/10/05 07:17:05;;;;;;;10.63;9.67;;;;;;;14.25;89.50;100926.81;5058613;28;20267;-86
2023/10/05 07:19:31;;;;;;;11.00;10.10;;;;;;;14.47;88.23;100933.25;5057422;28;20217;-86
2023/10/05 07:25:04;;;;;;;10.60;9.53;;;;;;;14.58;87.91;100942.63;5054259;28;20199;-85
2023/10/05 07:27:32;;;;;;;10.70;9.60;;;;;;;14.69;87.11;100961.59;5060337;28;20221;-85
2023/10/05 07:29:59;;;;;;;10.93;9.90;;;;;;;14.57;86.10;100985.53;5062724;28;20204;-85
2023/10/05 07:32:28;;;;;;;10.67;9.57;;;;;;;14.68;86.45;100992.25;5064618;28;20275;-85
2023/10/05 07:35:22;;;;;;;10.20;9.30;;;;;;;14.56;85.71;101023.22;5059306;28;20217;-87
2023/10/05 07:37:56;;;;;;;10.80;9.90;;;;;;;14.46;85.85;101027.84;5029716;28;20203;-84
2023/10/05 07:40:25;;;;;;;11.13;10.13;;;;;;;14.73;85.80;101025.41;5089119;22;20258;-86
2023/10/05 07:42:54;;;;;;;10.07;9.20;;;;;;;14.71;85.11;101033.38;5048892;28;20251;-85
2023/10/05 07:45:20;;;;;;;14.57;10.17;;;;;;;14.66;84.34;101056.25;5049763;28;20302;-84
2023/10/05 07:47:48;;;;;;;11.70;10.37;;;;;;;14.75;84.57;101058.66;5050564;28;20198;-86
2023/10/05 07:50:24;;;;;;;12.07;10.30;;;;;;;14.65;85.21;101060.66;5045452;28;20224;-86
2023/10/05 07:53:25;;;;;;;13.23;11.17;;;;;;;14.74;84.94;101056.06;5046095;28;20258;-87
2023/10/05 07:55:54;;;;;;;12.00;10.87;;;;;;;14.78;85.15;101060.31;4988414;28;20233;-82
2023/10/05 07:58:22;;;;;;;12.43;10.37;;;;;;;14.82;85.46;101067.22;4996031;28;20229;-84
2023/10/05 08:00:49;;;;;;;9.57;8.67;;;;;;;14.90;84.52;101070.50;5025374;28;20230;-86
2023/10/05 08:03:17;;;;;;;10.03;8.47;;;;;;;14.68;84.78;101101.75;5039197;28;20219;-86
2023/10/05 08:05:43;;;;;;;11.50;10.30;;;;;;;14.83;84.62;101090.84;5040957;28;20527;-86
2023/10/05 08:08:11;;;;;;;10.77;9.57;;;;;;;14.98;84.54;101104.50;5037669;28;20216;-87
2023/10/05 08:10:38;;;;;;;12.07;10.30;;;;;;;14.97;84.46;101094.88;5037678;28;20238;-87
2023/10/05 08:13:13;;;;;;;11.20;10.20;;;;;;;14.91;85.05;101097.69;5038324;28;20204;-87
2023/10/05 08:15:44;;;;;;;9.10;8.17;;;;;;;15.01;84.40;101102.66;5037027;28;20586;-86
2023/10/05 08:18:29;;;;;;;10.47;9.37;;;;;;;14.93;85.02;101101.13;5026109;28;20209;-85
2023/10/05 08:20:55;;;;;;;9.30;8.40;;;;;;;15.03;84.60;101102.63;5032086;28;20255;-86
2023/10/05 08:23:32;;;;;;;9.27;8.33;;;;;;;14.80;84.27;101125.09;5037763;28;20226;-85
2023/10/05 08:26:19;;;;;;;9.00;8.10;;;;;;;14.93;83.94;101124.78;5031514;28;20204;-84
2023/10/05 08:28:49;;;;;;;10.70;7.80;;;;;;;15.05;83.59;101134.97;5039335;28;20214;-84
2023/10/05 08:31:23;;;;;;;9.57;8.67;;;;;;;15.18;83.32;101132.88;5047930;28;20219;-84
2023/10/05 08:34:45;;;;;;;8.77;7.93;;;;;;;15.15;82.54;101149.59;5040264;28;20218;-84
2023/10/05 08:37:49;;;;;;;12.47;8.00;;;;;;;15.19;82.43;101156.50;5032431;28;20251;-85
2023/10/05 08:40:37;;;;;;;8.83;8.07;;;;;;;15.29;82.66;101152.72;5040186;28;20225;-83
2023/10/05 08:45:50;;;;;;;9.23;8.17;;;;;;;15.34;81.91;101171.03;5036099;28;20241;-84
2023/10/05 08:48:22;;;;;;;9.50;8.70;;;;;;;15.34;81.95;101181.56;5020000;28;20206;-86
2023/10/05 08:51:09;;;;;;;9.00;8.17;;;;;;;15.50;82.09;101182.00;5028460;28;20256;-85
2023/10/05 08:53:44;;;;;;;9.47;8.67;;;;;;;15.55;81.90;101179.22;5037435;28;20201;-85
2023/10/05 08:56:17;;;;;;;11.43;8.50;;;;;;;15.62;81.40;101197.44;5038140;28;20205;-86
2023/10/05 08:58:59;;;;;;;9.87;7.73;;;;;;;15.63;80.88;101225.47;5045750;28;20274;-84
2023/10/05 09:01:29;;;;;;;8.43;7.73;;;;;;;15.76;80.97;101228.69;5060898;28;20235;-83
2023/10/05 09:04:11;;;;;;;10.53;7.67;;;;;;;15.74;80.52;101246.28;5035737;28;20251;-85
2023/10/05 09:06:47;;;;;;;8.53;7.73;;;;;;;15.74;80.36;101253.31;5052010;28;20205;-85
2023/10/05 09:09:14;;;;;;;8.63;7.83;;;;;;;15.55;80.81;101266.94;5045345;28;20206;-85
2023/10/05 09:11:41;;;;;;;8.87;7.83;;;;;;;15.84;81.36;101244.28;5038294;28;20229;-84
2023/10/05 09:14:13;;;;;;;8.13;7.47;;;;;;;15.96;80.87;101248.34;5043772;28;20230;-85
2023/10/05 09:16:43;;;;;;;11.60;7.50;;;;;;;15.99;79.12;101279.81;5040474;28;20222;-84
2023/10/05 09:19:15;;;;;;;9.70;7.27;;;;;;;15.98;79.20;101301.81;5035180;28;20218;-86
2023/10/05 09:21:55;;;;;;;6.70;6.10;;;;;;;16.04;78.72;101320.94;5037957;28;20276;-84
2023/10/05 09:25:27;;;;;;;12.13;6.70;;;;;;;16.00;79.28;101321.06;5047625;28;20216;-84
2023/10/05 09:28:12;;;;;;;7.87;7.17;;;;;;;15.78;78.63;101341.84;5039253;28;20680;-82
2023/10/05 09:30:56;;;;;;;8.77;6.93;;;;;;;15.83;79.50;101324.16;5048416;28;20229;-83
2023/10/05 09:33:25;;;;;;;6.20;5.70;;;;;;;15.87;78.91;101336.31;5044441;28;20198;-84
2023/10/05 09:35:56;;;;;;;6.23;5.63;;;;;;;15.91;78.67;101342.38;5045207;28;20286;-82
2023/10/05 09:38:25;;;;;;;7.83;6.37;;;;;;;15.95;78.86;101338.75;5053434;28;20221;-83
2023/10/05 09:40:54;;;;;;;6.80;5.13;;;;;;;15.96;78.49;101345.75;5061231;28;20300;-82
2023/10/05 09:43:23;;;;;;;6.77;4.80;;;;;;;16.00;78.81;101342.13;5060541;28;20222;-81
2023/10/05 09:45:52;;;;;;;5.83;4.70;;;;;;;16.01;78.07;101359.66;5042689;28;20202;-82
2023/10/05 09:48:20;;;;;;;6.13;3.90;;;;;;;16.00;77.04;101392.19;5021561;28;20207;-84
2023/10/05 09:50:47;;;;;;;11.10;4.83;;;;;;;16.12;78.07;101383.94;5034348;28;20233;-83
2023/10/05 09:53:18;;;;;;;4.57;4.17;;;;;;;16.14;77.97;101366.31;5047094;28;20306;-83
2023/10/05 09:55:49;;;;;;;6.60;5.57;;;;;;;16.36;78.06;101373.63;5039168;28;20215;-83
2023/10/05 09:58:18;;;;;;;7.83;5.83;;;;;;;16.41;77.12;101372.59;5038694;28;20201;-83
2023/10/05 10:00:55;;;;;;;6.47;5.47;;;;;;;16.41;77.31;101398.97;5038878;28;20301;-81
2023/10/05 10:03:22;;;;;;;7.73;5.70;;;;;;;16.48;77.72;101384.69;5042210;28;20225;-81
2023/10/05 10:05:52;;;;;;;6.83;5.40;;;;;;;16.65;77.02;101386.84;5039766;28;20210;-82
2023/10/05 10:08:23;;;;;;;4.97;4.37;;;;;;;16.26;75.23;101441.53;5039304;28;20210;-82
2023/10/05 10:11:01;;;;;;;4.60;3.73;;;;;;;16.39;75.88;101427.13;5043029;28;20229;-83
2023/10/05 10:13:33;;;;;;;9.47;5.13;;;;;;;16.58;76.98;101418.69;5041523;28;20760;-84
2023/10/05 10:16:02;;;;;;;8.30;4.90;;;;;;;16.71;76.87;101406.91;5043493;28;20205;-82
2023/10/05 10:18:37;;;;;;;7.50;4.67;;;;;;;16.74;76.42;101412.06;5027503;28;20230;-82
2023/10/05 10:21:09;;;;;;;6.50;4.37;;;;;;;16.82;76.58;101407.47;5030611;28;20251;-81
2023/10/05 10:23:38;;;;;;;7.83;4.83;;;;;;;16.50;76.92;101412.78;5039840;28;20226;-83
2023/10/05 10:26:06;;;;;;;7.60;3.87;;;;;;;16.58;76.20;101411.66;5039699;28;20202;-83
2023/10/05 10:28:43;;;;;;;7.60;4.03;;;;;;;16.86;76.30;101410.88;5040297;28;20202;-82
2023/10/05 10:31:16;;;;;;;10.43;4.27;;;;;;;16.91;75.49;101435.34;5040048;28;20229;-82
2023/10/05 10:33:43;;;;;;;7.33;4.00;;;;;;;16.86;74.30;101461.84;5039192;28;20667;-84
2023/10/05 10:36:18;;;;;;;5.87;3.20;;;;;;;17.05;74.52;101466.59;5039885;28;20575;-83
2023/10/05 10:38:48;;;;;;;6.07;3.90;;;;;;;16.95;75.30;101466.00;5040448;28;20247;-82
2023/10/05 10:41:16;;;;;;;4.63;3.50;;;;;;;16.94;74.50;101484.50;5043129;28;20237;-83
2023/10/05 10:43:49;;;;;;;5.17;3.63;;;;;;;17.06;75.00;101465.69;5044849;28;20320;-84
2023/10/05 10:46:28;;;;;;;7.23;3.97;;;;;;;17.14;73.89;101484.78;5043862;28;20205;-83
2023/10/05 10:48:57;;;;;;;3.77;2.57;;;;;;;17.22;72.82;101518.88;5024073;28;20620;-83
2023/10/05 10:51:24;;;;;;;6.20;2.80;;;;;;;17.07;72.52;101543.94;5034588;28;20288;-83
2023/10/05 10:54:00;;;;;;;6.73;3.73;;;;;;;16.95;73.25;101553.06;5040500;28;20222;-82
2023/10/05 10:56:34;;;;;;;5.70;2.60;;;;;;;16.85;74.32;101522.56;5039127;28;20260;-83
2023/10/05 10:59:11;;;;;;;5.63;2.77;;;;;;;16.98;74.12;101516.03;5048794;28;20206;-83
2023/10/05 11:01:52;;;;;;;5.67;2.50;;;;;;;17.18;72.93;101515.44;5041437;28;20218;-83
2023/10/05 11:04:25;;;;;;;5.27;2.77;;;;;;;17.05;73.11;101520.22;5041006;28;20221;-82
2023/10/05 11:06:59;;;;;;;10.67;3.00;;;;;;;17.16;72.75;101543.66;5041448;28;20210;-81
2023/10/05 11:09:31;;;;;;;4.07;2.47;;;;;;;17.12;72.64;101554.34;5041367;28;20203;-84
2023/10/05 11:12:09;;;;;;;5.40;2.70;;;;;;;17.09;72.58;101559.72;5053603;28;20319;-86
2023/10/05 11:14:37;;;;;;;4.47;2.43;;;;;;;17.10;72.29;101554.38;5049893;28;20202;-83
2023/10/05 11:17:12;;;;;;;3.63;2.60;;;;;;;17.25;72.52;101553.94;5042169;28;20213;-84
2023/10/05 11:19:40;;;;;;;8.03;3.00;;;;;;;17.37;71.34;101571.22;5031595;28;20623;-82
2023/10/05 11:22:11;;;;;;;4.20;2.10;;;;;;;17.29;72.19;101569.72;5046175;28;20199;-85
2023/10/05 11:25:14;;;;;;;4.10;2.30;;;;;;;17.12;71.94;101570.19;5039270;28;20218;-82
2023/10/05 11:27:46;;;;;;;4.77;2.40;;;;;;;16.84;72.77;101566.50;5037499;28;20233;-79
2023/10/05 11:30:18;;;;;;;3.80;2.00;;;;;;;16.98;72.83;101552.09;5036818;28;20229;-83
2023/10/05 11:32:46;;;;;;;3.27;2.17;;;;;;;16.96;72.92;101540.72;5045929;28;20263;-82
2023/10/05 11:35:15;;;;;;;3.27;2.30;;;;;;;16.89;73.24;101545.31;5020400;28;20661;-83
2023/10/05 11:37:44;;;;;;;4.87;2.17;;;;;;;16.88;73.32;101540.94;5035897;28;20212;-83
2023/10/05 11:40:19;;;;;;;4.70;2.43;;;;;;;16.71;73.38;101540.47;5045801;28;20230;-84
2023/10/05 11:42:48;;;;;;;6.20;2.53;;;;;;;16.83;73.42;101529.66;5039932;28;20201;-84
2023/10/05 11:45:18;;;;;;;7.07;2.53;;;;;;;16.87;73.50;101524.25;5049668;28;20231;-85
2023/10/05 11:47:48;;;;;;;5.23;2.87;;;;;;;17.02;72.87;101535.28;5042121;28;20214;-82
2023/10/05 11:50:33;;;;;;;4.80;2.27;;;;;;;16.92;73.49;101532.03;5038515;28;20226;-82